TAF and METAR

METAR for Sarh Airport

FTTA 011000Z 08006KT CAVOK 36/M01 Q1009
Report created 1. mar 11:00
wind 6 knots from E (080°) Clear sky Temperature 36° with dewpoint at -1° (Humidity 9.59%) Pressure 1009 hPa
No TAF available for Sarh Airport